Tinker AFB, Oklahoma
Current Conditions -  °F | °C
As of 11:58 PM on Saturday 20 Dec 2014 (Local Time) from KTIK Reporting Station
Overcast Overcast  
Wind Chill: 34°   Ceiling: 2500
Heat Index: 40°   Visibility: 10mi
Dew Point: 37°   Wind: 9mph
Humidity: 88%   Direction: 170°S
Pressure: 30.13"   Gusts: NA
Location:  35.4189°N, 97.3941°W
Report Text: KTIK 210558Z AUTO 17008KT 10SM OVC025 05/03 A3013 RMK AO2 SLP215 T00460028 10054 20046 400640037 58005
Loading
Personal Weather Stations






























Interactive Weather Map New forecast layout! Learn more

10-Day Weather Forecast

Advertisements
Track Severe Weather on mobile